createdAt,value
2017-10-13T00:09:15.738Z,83.12
2017-10-13T00:15:54.079Z,82.46
2017-10-13T04:10:10.709Z,82.80
2017-10-13T04:10:18.558Z,84.67
2017-10-13T04:10:26.693Z,85.09
2017-10-13T04:10:34.832Z,84.60
2017-10-13T04:10:42.975Z,84.98
2017-10-13T04:10:51.106Z,83.53
2017-10-13T04:10:59.250Z,85.07
2017-10-13T04:11:07.377Z,84.76
2017-10-13T04:11:15.510Z,84.57
2017-10-13T04:11:23.662Z,84.48
2017-10-13T04:11:31.807Z,84.94
2017-10-13T04:11:39.934Z,84.65
2017-10-13T04:11:48.090Z,84.63
2017-10-13T04:11:56.209Z,84.76
2017-10-13T04:12:04.346Z,85.07
2017-10-13T04:12:12.489Z,84.06
2017-10-13T04:12:20.814Z,83.69
2017-10-13T04:12:28.774Z,85.31
2017-10-13T04:12:44.650Z,84.68
2017-10-13T04:12:52.465Z,85.03
2017-10-13T04:13:00.794Z,84.75
2017-10-13T04:13:16.501Z,84.83
2017-10-13T04:13:24.501Z,83.89
2017-10-13T04:13:32.445Z,85.07
2017-10-13T04:13:49.833Z,85.02
2017-10-13T04:14:02.495Z,84.90
2017-10-13T04:14:10.114Z,84.94
2017-10-13T04:14:18.253Z,84.92
2017-10-13T04:14:26.381Z,83.95
2017-10-13T04:14:34.518Z,85.16
2017-10-13T04:14:42.658Z,84.79
2017-10-13T04:14:50.801Z,84.61
2017-10-13T04:15:04.713Z,84.64
2017-10-13T04:15:12.905Z,84.81
2017-10-13T04:15:21.044Z,84.44
2017-10-13T04:15:29.389Z,83.88
2017-10-13T04:15:50.866Z,85.06
2017-10-13T04:15:59.305Z,84.18
2017-10-13T04:16:16.525Z,84.49
2017-10-13T04:16:24.758Z,85.45
2017-10-13T04:16:33.064Z,84.58
2017-10-13T04:16:41.057Z,84.45
2017-10-13T04:16:49.013Z,84.42
2017-10-13T04:16:57.146Z,85.62
2017-10-13T04:17:05.278Z,85.88
2017-10-13T04:17:13.414Z,84.73
2017-10-13T04:17:21.557Z,85.75
2017-10-13T04:17:29.694Z,85.48
2017-10-13T04:17:37.834Z,85.78
2017-10-13T04:17:45.957Z,85.44
2017-10-13T04:17:54.370Z,85.97
2017-10-13T04:18:02.223Z,84.56
2017-10-13T04:18:16.313Z,85.66
2017-10-13T04:18:30.080Z,84.67
2017-10-13T04:18:38.317Z,84.63
2017-10-13T04:18:53.234Z,84.67
2017-10-13T04:21:53.342Z,85.78
2017-10-13T04:22:01.398Z,85.84
2017-10-13T04:22:15.785Z,86.23
2017-10-13T04:22:23.485Z,84.75
2017-10-13T04:22:31.628Z,86.31
2017-10-13T04:22:39.965Z,86.05
2017-10-13T04:22:56.726Z,85.43
2017-10-13T04:23:07.374Z,85.15
2017-10-13T04:23:25.346Z,86.26
2017-10-13T04:23:44.605Z,86.17
2017-10-13T04:23:59.131Z,86.00
2017-10-13T04:24:08.018Z,85.02
2017-10-13T04:24:19.813Z,86.24
2017-10-13T04:24:35.173Z,85.34
2017-10-13T04:24:52.872Z,85.34
2017-10-13T04:25:01.160Z,85.37
2017-10-13T04:25:09.279Z,85.14
2017-10-13T04:25:17.585Z,86.40
2017-10-13T04:25:43.058Z,85.17
2017-10-13T04:25:54.670Z,85.58
2017-10-13T04:26:12.062Z,86.51
2017-10-13T04:26:21.057Z,85.55
2017-10-13T04:26:38.921Z,85.55
2017-10-13T04:26:48.215Z,86.23
2017-10-13T04:26:57.781Z,86.30
2017-10-13T04:27:06.711Z,85.86
2017-10-13T04:27:22.237Z,86.17
2017-10-13T04:27:40.694Z,85.21
2017-10-13T04:27:48.229Z,85.49
2017-10-13T04:28:04.651Z,85.88
2017-10-13T04:28:14.454Z,86.04
2017-10-13T04:28:23.979Z,86.20
2017-10-13T04:28:32.054Z,86.05
2017-10-13T04:28:41.799Z,85.15
2017-10-13T04:28:51.628Z,86.13
2017-10-13T04:29:09.033Z,86.23
2017-10-13T04:29:16.802Z,85.07
2017-10-13T04:29:25.089Z,84.84
2017-10-13T04:29:33.106Z,85.73
2017-10-13T04:29:41.369Z,86.01
2017-10-13T04:29:49.490Z,84.91
2017-10-13T04:29:57.452Z,84.98
2017-10-13T04:30:05.594Z,86.34
2017-10-13T04:30:13.765Z,85.00
2017-10-13T04:30:22.057Z,85.98
2017-10-13T04:30:30.011Z,86.28
2017-10-13T04:30:38.318Z,86.12
2017-10-13T04:30:53.877Z,84.95
2017-10-13T04:31:02.592Z,85.45
2017-10-13T04:31:11.620Z,85.68
2017-10-13T04:31:21.370Z,85.78
2017-10-13T04:31:31.286Z,86.33
2017-10-13T04:31:40.995Z,85.79
2017-10-13T04:31:49.183Z,86.54
2017-10-13T04:31:59.183Z,85.13
2017-10-13T04:32:16.341Z,85.29
2017-10-13T04:32:24.065Z,85.13
2017-10-13T04:32:36.845Z,85.15
2017-10-13T04:32:44.898Z,86.98
2017-10-13T04:32:53.591Z,85.31
2017-10-13T04:33:08.641Z,85.14
2017-10-13T04:33:16.498Z,85.79
2017-10-13T04:33:24.821Z,85.72
2017-10-13T04:33:40.148Z,85.96
2017-10-13T04:34:01.223Z,86.71
2017-10-13T04:34:14.459Z,85.16
2017-10-13T04:34:36.058Z,86.87
2017-10-13T04:34:44.605Z,86.97
2017-10-13T04:34:55.521Z,86.07
2017-10-13T04:35:03.807Z,86.52
2017-10-13T04:35:18.530Z,87.03
2017-10-13T04:35:35.101Z,86.43
2017-10-13T04:35:43.041Z,86.40
2017-10-13T04:35:51.050Z,85.98
2017-10-13T04:35:59.193Z,85.77
2017-10-13T04:36:07.330Z,86.79
2017-10-13T04:36:15.478Z,87.17
2017-10-13T04:36:23.801Z,86.87
2017-10-13T04:36:31.746Z,86.17
2017-10-13T04:36:39.886Z,85.72
2017-10-13T04:36:48.077Z,85.58
2017-10-13T04:37:02.114Z,86.31
2017-10-13T04:37:15.078Z,86.60
2017-10-13T04:37:31.636Z,85.82
2017-10-13T04:37:46.903Z,86.16
2017-10-13T04:37:55.202Z,85.32
2017-10-13T04:38:11.111Z,86.90
2017-10-13T04:38:25.874Z,86.45
2017-10-13T04:38:41.824Z,85.85
2017-10-13T04:38:50.112Z,86.99
2017-10-13T04:39:03.460Z,85.43
2017-10-13T04:39:18.901Z,86.39
2017-10-13T04:39:27.722Z,86.35
2017-10-13T04:39:43.134Z,86.30
2017-10-13T04:39:51.498Z,87.15
2017-10-13T04:39:59.770Z,86.58
2017-10-13T04:40:14.953Z,85.69
2017-10-13T04:40:34.298Z,86.08
2017-10-13T04:44:23.927Z,85.66
2017-10-13T04:59:58.222Z,86.25
2017-10-13T05:00:39.773Z,86.43
2017-10-13T05:01:27.765Z,86.40
2017-10-13T05:04:06.233Z,84.76
2017-10-13T05:06:33.438Z,85.87
2017-10-13T05:08:17.051Z,86.48
2017-10-13T05:20:21.818Z,85.78
2017-10-13T05:21:19.518Z,85.16
2017-10-13T05:21:31.231Z,85.71
2017-10-13T05:21:49.844Z,85.12
2017-10-13T05:21:58.761Z,86.33
2017-10-13T05:22:17.902Z,86.30
2017-10-13T05:22:25.310Z,84.90
2017-10-13T05:22:45.273Z,86.07
2017-10-13T05:22:55.614Z,85.90
2017-10-13T05:23:04.093Z,86.39
2017-10-13T05:23:31.045Z,85.30
2017-10-13T05:23:46.210Z,85.99
2017-10-13T05:23:54.017Z,85.42
2017-10-13T05:24:06.909Z,85.22
2017-10-13T05:24:24.863Z,85.51
2017-10-13T05:24:42.047Z,84.87
2017-10-13T05:25:00.906Z,84.91
2017-10-13T05:25:16.859Z,85.02
2017-10-13T05:25:24.806Z,85.57
2017-10-13T05:25:43.882Z,85.54
2017-10-13T05:25:59.847Z,84.87
2017-10-13T05:26:19.805Z,84.87
2017-10-13T05:26:35.553Z,84.97
2017-10-13T05:26:43.205Z,85.03
2017-10-13T05:26:51.513Z,85.30
2017-10-13T05:27:00.042Z,84.94
2017-10-13T05:27:18.352Z,85.00
2017-10-13T05:27:32.109Z,85.02
2017-10-13T05:27:49.281Z,85.11
2017-10-13T05:28:12.117Z,85.23
2017-10-13T05:28:38.718Z,85.85
2017-10-13T05:28:52.645Z,84.78
2017-10-13T05:29:05.289Z,85.68
2017-10-13T05:29:20.882Z,85.82
2017-10-13T05:29:28.707Z,86.28
2017-10-13T05:29:44.960Z,85.28
2017-10-13T05:30:01.534Z,85.86
2017-10-13T05:30:09.934Z,85.78
2017-10-13T05:30:24.523Z,86.06
2017-10-13T05:30:45.538Z,85.39
2017-10-13T05:30:57.230Z,85.15
2017-10-13T05:31:14.520Z,84.88
2017-10-13T05:31:40.520Z,85.14
2017-10-13T05:32:00.550Z,85.10
2017-10-13T05:32:21.254Z,84.94
2017-10-13T05:32:31.389Z,85.51
2017-10-13T05:32:50.347Z,84.95
2017-10-13T05:33:11.293Z,85.14
2017-10-13T05:33:24.546Z,85.27
2017-10-13T05:33:32.762Z,85.36
2017-10-13T05:33:41.106Z,85.54
2017-10-13T05:33:55.169Z,85.22
2017-10-13T05:34:03.015Z,85.87
2017-10-13T05:34:21.114Z,85.42
2017-10-13T05:34:30.133Z,85.50
2017-10-13T05:34:38.811Z,85.47
2017-10-13T05:34:54.910Z,85.28
2017-10-13T05:35:12.631Z,85.46
2017-10-13T05:35:29.473Z,85.66
2017-10-13T05:35:37.688Z,85.63
2017-10-13T05:35:54.576Z,85.44
2017-10-13T05:36:11.738Z,85.82
2017-10-13T05:36:20.337Z,86.62
2017-10-13T05:36:28.302Z,85.79
2017-10-13T05:36:45.456Z,86.35
2017-10-13T05:36:57.243Z,86.28
2017-10-13T05:37:06.623Z,85.43
2017-10-13T05:37:21.592Z,85.36
2017-10-13T05:37:30.306Z,85.93
2017-10-13T05:37:52.522Z,85.48
2017-10-13T05:38:00.515Z,85.49
2017-10-13T05:38:08.470Z,85.37
2017-10-13T05:38:25.772Z,85.36
2017-10-13T05:39:07.654Z,85.29
2017-10-13T05:39:34.985Z,86.66
2017-10-13T05:39:57.944Z,85.97
2017-10-13T05:40:34.996Z,86.75
2017-10-13T05:40:43.741Z,85.63
2017-10-13T05:40:58.528Z,86.72
2017-10-13T05:41:07.071Z,85.68
2017-10-13T05:41:15.658Z,85.77
2017-10-13T05:41:31.220Z,86.06
2017-10-13T05:41:51.887Z,86.55
2017-10-13T05:42:07.233Z,85.52
2017-10-13T05:42:15.237Z,85.80
2017-10-13T05:42:23.192Z,85.64
2017-10-13T05:42:44.565Z,85.42
2017-10-13T05:43:01.056Z,85.88
2017-10-13T05:43:16.305Z,85.84
2017-10-13T05:43:44.294Z,86.87
2017-10-13T05:43:59.862Z,85.45
2017-10-13T05:44:08.987Z,85.84
2017-10-13T05:44:35.955Z,85.61
2017-10-13T05:45:12.272Z,86.09
2017-10-13T05:45:30.522Z,85.98
2017-10-13T05:45:51.097Z,85.88
2017-10-13T05:46:03.473Z,86.25
2017-10-13T05:46:11.485Z,85.58
2017-10-13T05:46:28.333Z,86.06
2017-10-13T05:46:41.293Z,86.90
2017-10-13T05:46:48.901Z,87.05
2017-10-13T05:46:57.598Z,86.42
2017-10-13T05:47:05.398Z,87.13
2017-10-13T05:47:26.073Z,86.53
2017-10-13T05:47:44.462Z,87.01
2017-10-13T05:47:52.461Z,85.94
2017-10-13T05:48:08.542Z,86.77
2017-10-13T05:48:25.417Z,87.03
2017-10-13T05:48:33.358Z,86.03
2017-10-13T05:48:49.318Z,86.71
2017-10-13T05:49:24.879Z,86.71
2017-10-13T05:49:39.654Z,86.12
2017-10-13T05:49:47.541Z,85.88
2017-10-13T05:49:55.496Z,86.05
2017-10-13T05:50:04.013Z,86.60
2017-10-13T05:50:20.125Z,86.14
2017-10-13T05:50:36.193Z,86.98
2017-10-13T05:50:54.449Z,86.57
2017-10-13T05:51:10.614Z,86.07
2017-10-13T05:51:29.781Z,87.02
2017-10-13T05:51:52.279Z,87.19
2017-10-13T05:52:10.621Z,87.20
2017-10-13T05:52:18.705Z,86.34
2017-10-13T05:52:34.223Z,86.74
2017-10-13T05:52:49.994Z,86.31
2017-10-13T05:52:57.617Z,86.13
2017-10-13T05:53:14.382Z,85.94
2017-10-13T05:53:22.906Z,86.62
2017-10-13T05:53:31.239Z,86.49
2017-10-13T05:53:49.625Z,86.82
2017-10-13T05:54:06.881Z,86.79
2017-10-13T05:54:15.130Z,85.90
2017-10-13T05:54:23.249Z,86.63
2017-10-13T05:54:31.586Z,86.26
2017-10-13T05:54:47.646Z,86.74
2017-10-13T05:55:06.372Z,86.86
2017-10-13T05:55:36.916Z,86.90
2017-10-13T05:55:45.890Z,86.14
2017-10-13T05:56:04.842Z,86.96
2017-10-13T05:56:19.286Z,86.99
2017-10-13T05:56:35.100Z,86.36
2017-10-13T05:56:43.818Z,86.61
2017-10-13T05:56:51.933Z,86.97
2017-10-13T05:57:00.084Z,87.11
2017-10-13T05:57:16.201Z,87.20
2017-10-13T05:57:30.863Z,87.56
2017-10-13T05:57:41.631Z,87.46
2017-10-13T05:58:00.614Z,87.53
2017-10-13T05:58:08.415Z,86.22
2017-10-13T05:58:16.370Z,87.17
2017-10-13T05:58:35.949Z,87.54
2017-10-13T05:58:49.530Z,87.11
2017-10-13T05:58:57.237Z,87.50
2017-10-13T05:59:05.394Z,87.07
2017-10-13T05:59:13.705Z,87.34
2017-10-13T05:59:21.650Z,87.16
2017-10-13T05:59:29.774Z,87.21
2017-10-13T05:59:44.661Z,87.43
2017-10-13T06:00:01.489Z,87.08
2017-10-13T06:00:11.014Z,87.48
2017-10-13T06:00:24.516Z,87.16
2017-10-13T06:00:38.727Z,87.21
2017-10-13T06:00:52.657Z,87.52
2017-10-13T06:01:07.466Z,87.11
2017-10-13T06:01:26.634Z,87.61
2017-10-13T06:01:42.982Z,87.51
2017-10-13T06:01:58.337Z,87.47
2017-10-13T06:02:18.801Z,87.41
2017-10-13T06:02:33.325Z,87.46
2017-10-13T06:02:42.498Z,87.00
2017-10-13T06:02:50.464Z,86.53
2017-10-13T06:03:12.373Z,87.53
2017-10-13T06:03:20.394Z,86.74
2017-10-13T06:03:40.609Z,87.43
2017-10-13T06:03:56.457Z,87.52
2017-10-13T06:04:04.585Z,87.51
2017-10-13T06:04:21.289Z,87.14
2017-10-13T06:04:38.478Z,87.42
2017-10-13T06:04:47.063Z,87.19
2017-10-13T06:04:56.598Z,86.67
2017-10-13T06:05:04.748Z,87.69
2017-10-13T06:05:20.110Z,86.89
2017-10-13T06:05:28.550Z,87.65
2017-10-13T06:05:36.903Z,87.71
2017-10-13T06:05:55.072Z,87.89
2017-10-13T06:06:13.592Z,87.95
2017-10-13T06:06:31.588Z,87.87
2017-10-13T06:06:43.058Z,87.05
2017-10-13T06:06:54.505Z,87.10
2017-10-13T06:07:09.526Z,87.73
2017-10-13T06:07:20.939Z,87.26
2017-10-13T06:07:35.373Z,87.68
2017-10-13T06:07:44.178Z,86.72
2017-10-13T06:07:58.892Z,86.95
2017-10-13T06:08:19.545Z,87.46
2017-10-13T06:08:38.989Z,87.80
2017-10-13T06:08:57.446Z,87.42
2017-10-13T06:09:05.969Z,87.29
2017-10-13T06:09:13.738Z,87.58
2017-10-13T06:09:25.274Z,87.85
2017-10-13T06:09:33.397Z,87.91
2017-10-13T06:09:41.350Z,86.99
2017-10-13T06:09:58.907Z,87.28
2017-10-13T06:10:06.630Z,87.67
2017-10-13T06:10:32.414Z,87.13
2017-10-13T06:10:51.686Z,87.40
2017-10-13T06:11:15.790Z,87.37
2017-10-13T06:11:25.682Z,87.96
2017-10-13T06:11:34.088Z,88.12
2017-10-13T06:11:43.418Z,88.06
2017-10-13T06:11:59.934Z,88.01
2017-10-13T06:12:07.054Z,88.53
2017-10-13T06:12:24.133Z,88.68
2017-10-13T06:12:39.108Z,87.65
2017-10-13T06:12:53.454Z,88.02
2017-10-13T06:13:02.258Z,88.31
2017-10-13T06:13:19.969Z,88.21
2017-10-13T06:13:27.624Z,88.42
2017-10-13T06:13:35.526Z,87.55
2017-10-13T06:13:43.673Z,87.73
2017-10-13T06:13:51.606Z,87.73
2017-10-13T06:13:59.741Z,87.68
2017-10-13T06:14:15.412Z,87.90
2017-10-13T06:14:23.712Z,87.87
2017-10-13T06:14:38.962Z,87.88
2017-10-13T06:14:56.906Z,88.11
2017-10-13T06:15:04.705Z,87.49
2017-10-13T06:15:23.401Z,87.73
2017-10-13T06:15:31.398Z,88.23
2017-10-13T06:15:39.742Z,88.43
2017-10-13T06:15:47.499Z,87.90
2017-10-13T06:16:06.736Z,88.81
2017-10-13T06:16:28.066Z,88.03
2017-10-13T06:16:49.801Z,88.31
2017-10-13T06:17:05.339Z,88.58
2017-10-13T06:17:15.452Z,88.11
2017-10-13T06:17:31.248Z,87.59
2017-10-13T06:17:47.852Z,88.15
2017-10-13T06:18:00.809Z,88.57
2017-10-13T06:18:16.053Z,88.42
2017-10-13T06:18:32.034Z,87.71
2017-10-13T06:18:39.854Z,88.80
2017-10-13T06:18:52.634Z,88.62
2017-10-13T06:19:00.364Z,88.56
2017-10-13T06:19:13.445Z,87.85
2017-10-13T06:19:30.113Z,88.37
2017-10-13T06:19:46.985Z,87.67
2017-10-13T06:20:01.956Z,88.64
2017-10-13T06:20:13.601Z,88.65
2017-10-13T06:20:30.669Z,88.38
2017-10-13T06:20:38.686Z,88.05
2017-10-13T06:20:46.842Z,87.96
2017-10-13T06:21:01.245Z,88.19
2017-10-13T06:21:19.857Z,88.43
2017-10-13T06:21:35.144Z,88.13
2017-10-13T06:21:45.292Z,87.93
2017-10-13T06:21:55.061Z,88.18
2017-10-13T06:22:09.009Z,88.13
2017-10-13T06:22:22.835Z,88.14
2017-10-13T06:22:30.882Z,88.17
2017-10-13T06:22:39.014Z,88.11
2017-10-13T06:22:58.273Z,87.94
2017-10-13T06:23:05.905Z,88.30
2017-10-13T06:23:23.510Z,88.31
2017-10-13T06:23:31.382Z,88.25
2017-10-13T06:23:39.337Z,88.31
2017-10-13T06:23:57.287Z,88.44
2017-10-13T06:24:18.395Z,88.10
2017-10-13T06:24:26.630Z,88.40
2017-10-13T06:24:34.746Z,88.18
2017-10-13T06:25:00.441Z,88.43
2017-10-13T06:25:07.850Z,88.35
2017-10-13T06:25:23.932Z,88.41
2017-10-13T06:25:38.510Z,88.25
2017-10-13T06:25:47.513Z,88.71
2017-10-13T06:26:02.421Z,88.41
2017-10-13T06:26:11.433Z,88.16
2017-10-13T06:26:18.966Z,88.11
2017-10-13T06:26:27.097Z,88.64
2017-10-13T06:26:41.190Z,88.28
2017-10-13T06:26:49.386Z,88.29
2017-10-13T06:26:57.533Z,88.30
2017-10-13T06:27:12.866Z,88.19
2017-10-13T06:27:23.166Z,88.23
2017-10-13T06:27:32.593Z,88.35
2017-10-13T06:27:42.378Z,88.48
2017-10-13T06:27:52.082Z,88.32
2017-10-13T06:28:02.071Z,88.49
2017-10-13T06:28:18.462Z,88.57
2017-10-13T06:28:33.778Z,88.28
2017-10-13T06:28:42.565Z,88.83
2017-10-13T06:28:58.035Z,88.30
2017-10-13T06:29:12.270Z,88.38
2017-10-13T06:29:31.485Z,88.80
2017-10-13T06:29:39.262Z,88.59
2017-10-13T06:29:57.962Z,88.66
2017-10-13T06:30:05.806Z,88.21
2017-10-13T06:30:24.975Z,88.68
2017-10-13T06:30:44.245Z,89.00
2017-10-13T06:30:51.665Z,88.51
2017-10-13T06:31:09.866Z,88.43
2017-10-13T06:31:24.313Z,88.65
2017-10-13T06:31:40.084Z,88.13
2017-10-13T06:31:48.101Z,87.97
2017-10-13T06:32:04.686Z,88.75
2017-10-13T06:32:23.662Z,88.48
2017-10-13T06:32:31.962Z,88.27
2017-10-13T06:32:51.257Z,88.23
2017-10-13T06:32:59.290Z,88.59
2017-10-13T06:33:07.233Z,88.71
2017-10-13T06:33:15.346Z,88.58
2017-10-13T06:33:33.241Z,88.56
2017-10-13T06:33:40.457Z,88.56
2017-10-13T06:33:56.546Z,88.72
2017-10-13T06:34:13.293Z,88.48
2017-10-13T06:34:28.085Z,88.58
2017-10-13T06:34:41.242Z,88.56
2017-10-13T06:34:55.178Z,88.67
2017-10-13T06:35:03.403Z,88.58
2017-10-13T06:35:18.618Z,88.25
2017-10-13T06:35:35.862Z,88.46
2017-10-13T06:35:44.095Z,88.24
2017-10-13T06:35:52.421Z,88.41
2017-10-13T06:36:04.322Z,88.07
2017-10-13T06:36:22.493Z,87.77
2017-10-13T06:36:30.091Z,88.30
2017-10-13T06:36:48.990Z,87.97
2017-10-13T06:36:57.010Z,88.16
2017-10-13T06:37:10.274Z,87.89
2017-10-13T06:37:18.910Z,88.39
2017-10-13T06:37:27.036Z,88.33
2017-10-13T06:37:35.197Z,88.28
2017-10-13T06:37:50.467Z,88.60
2017-10-13T06:38:08.700Z,88.15
2017-10-13T06:38:24.790Z,88.32
2017-10-13T06:38:33.475Z,88.24
2017-10-13T06:38:50.710Z,88.43
2017-10-13T06:38:58.519Z,88.39
2017-10-13T06:39:06.686Z,88.44
2017-10-13T06:39:14.958Z,88.53
2017-10-13T06:39:38.197Z,88.04
2017-10-13T06:39:52.237Z,88.52
2017-10-13T06:40:09.213Z,88.08
2017-10-13T06:40:25.335Z,88.51
2017-10-13T06:40:42.481Z,88.37
2017-10-13T06:41:08.625Z,88.01
2017-10-13T06:41:17.657Z,88.33
2017-10-13T06:41:33.328Z,88.32
2017-10-13T06:41:42.899Z,88.39
2017-10-13T06:41:54.766Z,88.31
2017-10-13T06:42:10.900Z,88.54
2017-10-13T06:42:26.303Z,88.28
2017-10-13T06:42:37.063Z,88.53
2017-10-13T06:43:00.109Z,88.48
2017-10-13T06:43:10.362Z,88.41
2017-10-13T06:43:24.882Z,88.51
2017-10-13T06:43:35.446Z,88.51
2017-10-13T06:43:45.434Z,88.22
2017-10-13T06:43:54.883Z,88.39
2017-10-13T06:44:06.176Z,88.42
2017-10-13T06:44:23.311Z,88.30
2017-10-13T06:44:39.445Z,88.38
2017-10-13T06:44:55.066Z,88.36
2017-10-13T06:45:11.567Z,88.34
2017-10-13T06:45:19.978Z,88.37
2017-10-13T06:45:28.293Z,88.59
2017-10-13T06:45:36.421Z,88.13
2017-10-13T06:45:51.649Z,87.98
2017-10-13T06:46:05.898Z,88.21
2017-10-13T06:46:23.970Z,88.61
2017-10-13T06:46:49.555Z,88.49
2017-10-13T06:46:58.346Z,88.12
2017-10-13T06:47:12.399Z,88.27
2017-10-13T06:47:34.426Z,88.18
2017-10-13T06:47:44.329Z,87.91
2017-10-13T06:47:56.838Z,88.27
2017-10-13T06:48:09.528Z,87.90
2017-10-13T06:48:25.984Z,88.04
2017-10-13T06:48:34.792Z,87.94
2017-10-13T06:48:44.328Z,88.15
2017-10-13T06:49:01.925Z,88.17
2017-10-13T06:49:18.598Z,88.12
2017-10-13T06:49:33.087Z,88.12
2017-10-13T06:49:41.882Z,87.68
2017-10-13T06:49:50.221Z,87.68
2017-10-13T06:49:58.544Z,87.89
2017-10-13T06:50:15.173Z,88.03
2017-10-13T06:50:32.426Z,87.77
2017-10-13T06:50:48.490Z,87.72
2017-10-13T06:50:57.856Z,87.91
2017-10-13T06:51:14.888Z,87.60
2017-10-13T06:51:45.353Z,87.84
2017-10-13T06:51:53.232Z,87.34
2017-10-13T06:52:06.962Z,87.69
2017-10-13T06:52:26.301Z,87.70
2017-10-13T06:52:43.902Z,87.37
2017-10-13T06:53:03.477Z,87.73
2017-10-13T06:53:26.221Z,88.04
2017-10-13T06:53:42.570Z,87.36
2017-10-13T06:53:58.045Z,87.63
2017-10-13T06:54:13.922Z,87.30
2017-10-13T06:54:21.922Z,87.76
2017-10-13T06:54:30.274Z,87.73
2017-10-13T06:54:53.658Z,87.26
2017-10-13T06:55:01.774Z,87.70
2017-10-13T06:55:09.873Z,87.48
2017-10-13T06:55:24.200Z,87.23
2017-10-13T06:55:47.001Z,87.67
2017-10-13T06:56:02.864Z,87.58
2017-10-13T06:56:12.046Z,87.88
2017-10-13T06:56:28.721Z,87.29
2017-10-13T06:56:44.997Z,87.11
2017-10-13T06:57:06.690Z,87.51
2017-10-13T06:57:15.562Z,87.39
2017-10-13T06:57:23.709Z,87.12
2017-10-13T06:57:44.374Z,87.36
2017-10-13T06:57:59.862Z,87.61
2017-10-13T06:58:21.606Z,87.41
2017-10-13T06:58:31.430Z,87.10
2017-10-13T06:58:41.304Z,87.17
2017-10-13T06:58:57.814Z,87.37
2017-10-13T06:59:06.437Z,87.33
2017-10-13T06:59:53.393Z,87.30
2017-10-13T07:00:02.971Z,87.36
2017-10-13T07:00:13.790Z,87.39
2017-10-13T07:00:24.012Z,87.25
2017-10-13T07:00:45.001Z,87.31
2017-10-13T07:01:07.810Z,86.65
2017-10-13T07:01:20.862Z,87.65
2017-10-13T07:01:31.722Z,87.15
2017-10-13T07:01:40.014Z,87.64
2017-10-13T07:01:47.757Z,87.23
2017-10-13T07:01:55.906Z,87.24
2017-10-13T07:02:14.501Z,87.12
2017-10-13T07:02:22.823Z,87.73
2017-10-13T07:02:43.690Z,87.34
2017-10-13T07:02:51.504Z,87.35
2017-10-13T07:02:59.822Z,86.75
2017-10-13T07:03:28.223Z,86.80
2017-10-13T07:03:52.700Z,87.09
2017-10-13T07:04:01.281Z,87.37
2017-10-13T07:04:09.238Z,87.68
2017-10-13T07:04:17.378Z,87.87
2017-10-13T07:04:44.161Z,86.86
2017-10-13T07:04:59.237Z,86.83
2017-10-13T07:05:26.542Z,87.14
2017-10-13T07:05:54.673Z,87.16
2017-10-13T07:06:03.184Z,87.12
2017-10-13T07:06:19.071Z,86.73
2017-10-13T07:06:37.653Z,86.95
2017-10-13T07:07:03.709Z,87.49
2017-10-13T07:07:21.392Z,87.51
2017-10-13T07:07:29.574Z,86.83
2017-10-13T07:07:47.477Z,87.12
2017-10-13T07:08:00.132Z,86.96
2017-10-13T07:08:14.711Z,87.13
2017-10-13T07:08:31.583Z,87.18
2017-10-13T07:08:39.986Z,86.69
2017-10-13T07:09:03.887Z,87.14
2017-10-13T07:09:11.675Z,87.04
2017-10-13T07:09:28.354Z,86.66
2017-10-13T07:09:38.622Z,87.11
2017-10-13T07:10:10.774Z,87.42
2017-10-13T07:10:21.330Z,87.53
2017-10-13T07:10:42.301Z,87.80
2017-10-13T07:10:50.007Z,87.49
2017-10-13T07:11:07.765Z,87.16
2017-10-13T07:11:25.673Z,87.83
2017-10-13T07:11:53.730Z,87.37
2017-10-13T07:12:02.266Z,87.56
2017-10-13T07:12:16.336Z,87.13
2017-10-13T07:12:31.118Z,87.51
2017-10-13T07:12:45.541Z,87.31
2017-10-13T07:13:09.454Z,86.69
2017-10-13T07:13:27.405Z,86.99
2017-10-13T07:13:44.385Z,87.22
2017-10-13T07:13:51.969Z,87.15
2017-10-13T07:14:09.866Z,86.56
2017-10-13T07:14:17.291Z,87.03
2017-10-13T07:14:25.582Z,86.83
2017-10-13T07:14:34.958Z,87.11
2017-10-13T07:14:59.761Z,87.59
2017-10-13T07:15:22.696Z,87.44
2017-10-13T07:15:33.862Z,87.49
2017-10-13T07:15:47.306Z,86.80
2017-10-13T07:16:02.655Z,87.16
2017-10-13T07:16:19.564Z,87.82
2017-10-13T07:16:40.246Z,87.12
2017-10-13T07:16:50.106Z,87.17
2017-10-13T07:17:02.793Z,87.21
2017-10-13T07:17:21.269Z,87.47
2017-10-13T07:17:45.774Z,87.36
2017-10-13T07:18:00.805Z,87.12
2017-10-13T07:18:17.386Z,86.73
2017-10-13T07:18:35.745Z,86.70
2017-10-13T07:18:43.142Z,87.44
2017-10-13T07:18:59.038Z,87.29
2017-10-13T07:19:25.510Z,86.75
2017-10-13T07:19:43.363Z,87.01
2017-10-13T07:19:58.517Z,87.32
2017-10-13T07:20:12.106Z,87.77
2017-10-13T07:20:28.457Z,87.06
2017-10-13T07:20:46.437Z,86.86
2017-10-13T07:21:02.395Z,86.61
2017-10-13T07:21:22.329Z,87.09
2017-10-13T07:21:33.684Z,86.86
2017-10-13T07:21:44.438Z,87.37
2017-10-13T07:21:53.609Z,86.80
2017-10-13T07:22:03.253Z,87.00
2017-10-13T07:22:12.796Z,86.86
2017-10-13T07:22:27.282Z,86.98
2017-10-13T07:22:36.519Z,86.90
2017-10-13T07:22:49.782Z,86.85
2017-10-13T07:22:59.018Z,86.83
2017-10-13T07:23:24.306Z,86.95
2017-10-13T07:23:32.230Z,87.26
2017-10-13T07:23:40.562Z,86.98
2017-10-13T07:23:55.945Z,86.92
2017-10-13T07:24:17.011Z,86.89
2017-10-13T07:24:26.059Z,87.20
2017-10-13T07:24:34.589Z,87.20
2017-10-13T07:24:50.798Z,87.03
2017-10-13T07:25:03.221Z,87.16
2017-10-13T07:25:13.825Z,87.13
2017-10-13T07:25:29.326Z,87.26
2017-10-13T07:25:46.193Z,86.98
2017-10-13T07:25:57.617Z,87.69
2017-10-13T07:26:16.596Z,86.98
2017-10-13T07:26:24.418Z,87.58
2017-10-13T07:26:54.807Z,86.99
2017-10-13T07:27:02.903Z,86.91
2017-10-13T07:27:17.780Z,86.99
2017-10-13T07:27:32.970Z,86.89
2017-10-13T07:27:40.194Z,86.68
2017-10-13T07:27:48.305Z,86.95
2017-10-13T07:28:03.214Z,86.76
2017-10-13T07:28:13.158Z,86.73
2017-10-13T07:28:31.142Z,86.79
2017-10-13T07:28:42.022Z,86.77
2017-10-13T07:28:52.075Z,87.17
2017-10-13T07:29:00.392Z,86.88
2017-10-13T07:29:17.677Z,86.85
2017-10-13T07:29:31.570Z,87.76
2017-10-13T07:29:39.454Z,86.83
2017-10-13T07:29:47.593Z,86.99
2017-10-13T07:30:11.132Z,86.63
2017-10-13T07:30:20.822Z,86.62
2017-10-13T07:30:29.294Z,87.44
2017-10-13T07:30:40.613Z,86.82
2017-10-13T07:30:50.823Z,86.17
2017-10-13T07:31:00.001Z,86.90
2017-10-13T07:31:17.874Z,87.35
2017-10-13T07:31:35.961Z,86.78
2017-10-13T07:31:57.067Z,87.17
2017-10-13T07:32:06.106Z,86.58
2017-10-13T07:32:20.605Z,86.74
2017-10-13T07:32:39.759Z,86.67
2017-10-13T07:32:51.014Z,86.65
2017-10-13T07:33:10.853Z,86.62
2017-10-13T07:33:28.734Z,86.84
2017-10-13T07:33:36.345Z,86.30
2017-10-13T07:33:44.468Z,86.59
2017-10-13T07:34:02.367Z,86.53
2017-10-13T07:34:19.820Z,86.59
2017-10-13T07:34:28.803Z,86.70
2017-10-13T07:34:45.446Z,86.38
2017-10-13T07:35:02.402Z,86.55
2017-10-13T07:35:18.786Z,86.00
2017-10-13T07:35:32.317Z,86.50
2017-10-13T07:35:49.296Z,86.31
2017-10-13T07:36:05.845Z,86.64
2017-10-13T07:36:18.342Z,86.42
2017-10-13T07:36:34.193Z,86.37
2017-10-13T07:36:42.614Z,86.45
2017-10-13T07:36:50.772Z,85.93
2017-10-13T07:37:10.021Z,86.43
2017-10-13T07:37:35.602Z,86.39
2017-10-13T07:37:51.769Z,86.37
2017-10-13T07:38:05.110Z,85.59
2017-10-13T07:38:12.738Z,85.66
2017-10-13T07:38:30.441Z,86.25
2017-10-13T07:38:42.425Z,86.39
2017-10-13T07:38:50.209Z,86.30
2017-10-13T07:38:58.357Z,86.41
2017-10-13T07:39:15.549Z,86.43
2017-10-13T07:39:53.229Z,86.35
2017-10-13T07:40:13.570Z,86.50
2017-10-13T07:40:35.853Z,86.28
2017-10-13T07:40:49.502Z,85.67
2017-10-13T07:40:58.112Z,85.49
2017-10-13T07:41:06.222Z,85.56
2017-10-13T07:41:23.953Z,86.37
2017-10-13T07:41:31.364Z,85.86
2017-10-13T07:41:47.026Z,85.80
2017-10-13T07:42:03.486Z,85.88
2017-10-13T07:42:21.073Z,86.20
2017-10-13T07:42:38.745Z,86.33
2017-10-13T07:42:56.149Z,85.52
2017-10-13T07:43:12.483Z,86.46
2017-10-13T07:43:25.458Z,86.31
2017-10-13T07:44:01.008Z,86.34
2017-10-13T07:44:09.630Z,86.52
2017-10-13T07:44:31.577Z,85.80
2017-10-13T07:44:57.298Z,85.61
2017-10-13T07:45:15.055Z,86.58
2017-10-13T07:45:29.209Z,85.96
2017-10-13T07:45:57.690Z,86.62
2017-10-13T07:46:16.362Z,86.55
2017-10-13T07:46:30.826Z,86.10
2017-10-13T07:46:40.447Z,86.35